sensor_id;sensor_type;location;lat;lon;timestamp;P1;durP1;ratioP1;P2;durP2;ratioP2
77091;SDS011;66032;48.252;11.638;2023-04-25T00:01:22;5.40;;;2.60;;
77091;SDS011;66032;48.252;11.638;2023-04-25T00:03:49;4.38;;;2.45;;
77091;SDS011;66032;48.252;11.638;2023-04-25T00:06:18;3.78;;;2.40;;
77091;SDS011;66032;48.252;11.638;2023-04-25T00:08:45;4.05;;;2.65;;
77091;SDS011;66032;48.252;11.638;2023-04-25T00:11:12;5.32;;;2.75;;
77091;SDS011;66032;48.252;11.638;2023-04-25T00:13:40;3.80;;;2.25;;
77091;SDS011;66032;48.252;11.638;2023-04-25T00:16:08;4.20;;;2.20;;
77091;SDS011;66032;48.252;11.638;2023-04-25T00:18:36;4.10;;;2.33;;
77091;SDS011;66032;48.252;11.638;2023-04-25T00:21:03;3.70;;;1.95;;
77091;SDS011;66032;48.252;11.638;2023-04-25T00:23:33;4.97;;;2.53;;
77091;SDS011;66032;48.252;11.638;2023-04-25T00:26:02;3.58;;;2.28;;
77091;SDS011;66032;48.252;11.638;2023-04-25T00:28:29;4.63;;;2.53;;
77091;SDS011;66032;48.252;11.638;2023-04-25T00:30:57;2.85;;;1.80;;
77091;SDS011;66032;48.252;11.638;2023-04-25T00:33:25;4.32;;;2.30;;
77091;SDS011;66032;48.252;11.638;2023-04-25T00:35:52;4.20;;;2.33;;
77091;SDS011;66032;48.252;11.638;2023-04-25T00:38:20;3.38;;;2.08;;
77091;SDS011;66032;48.252;11.638;2023-04-25T00:40:47;5.13;;;2.65;;
77091;SDS011;66032;48.252;11.638;2023-04-25T00:43:15;4.72;;;2.22;;
77091;SDS011;66032;48.252;11.638;2023-04-25T00:45:42;5.57;;;2.40;;
77091;SDS011;66032;48.252;11.638;2023-04-25T00:48:10;5.38;;;2.42;;
77091;SDS011;66032;48.252;11.638;2023-04-25T00:50:38;3.80;;;2.30;;
77091;SDS011;66032;48.252;11.638;2023-04-25T00:53:05;5.97;;;2.50;;
77091;SDS011;66032;48.252;11.638;2023-04-25T00:55:33;3.50;;;2.30;;
77091;SDS011;66032;48.252;11.638;2023-04-25T00:58:02;3.83;;;2.67;;
77091;SDS011;66032;48.252;11.638;2023-04-25T01:00:30;3.63;;;2.33;;
77091;SDS011;66032;48.252;11.638;2023-04-25T01:02:58;5.03;;;2.45;;
77091;SDS011;66032;48.252;11.638;2023-04-25T01:05:26;4.10;;;2.45;;
77091;SDS011;66032;48.252;11.638;2023-04-25T01:07:53;4.53;;;2.55;;
77091;SDS011;66032;48.252;11.638;2023-04-25T01:10:21;4.32;;;2.55;;
77091;SDS011;66032;48.252;11.638;2023-04-25T01:12:48;4.00;;;2.47;;
77091;SDS011;66032;48.252;11.638;2023-04-25T01:15:16;5.60;;;2.53;;
77091;SDS011;66032;48.252;11.638;2023-04-25T01:17:44;4.18;;;2.40;;
77091;SDS011;66032;48.252;11.638;2023-04-25T01:20:11;4.68;;;2.42;;
77091;SDS011;66032;48.252;11.638;2023-04-25T01:22:41;4.35;;;2.22;;
77091;SDS011;66032;48.252;11.638;2023-04-25T01:25:09;4.85;;;2.38;;
77091;SDS011;66032;48.252;11.638;2023-04-25T01:27:38;4.80;;;2.50;;
77091;SDS011;66032;48.252;11.638;2023-04-25T01:30:07;4.15;;;2.50;;
77091;SDS011;66032;48.252;11.638;2023-04-25T01:32:35;5.70;;;2.70;;
77091;SDS011;66032;48.252;11.638;2023-04-25T01:35:08;5.30;;;2.95;;
77091;SDS011;66032;48.252;11.638;2023-04-25T01:37:46;6.22;;;2.50;;
77091;SDS011;66032;48.252;11.638;2023-04-25T01:40:14;3.92;;;2.53;;
77091;SDS011;66032;48.252;11.638;2023-04-25T01:42:42;6.10;;;2.92;;
77091;SDS011;66032;48.252;11.638;2023-04-25T01:45:11;4.20;;;2.50;;
77091;SDS011;66032;48.252;11.638;2023-04-25T01:47:38;4.35;;;2.50;;
77091;SDS011;66032;48.252;11.638;2023-04-25T01:50:10;3.40;;;2.33;;
77091;SDS011;66032;48.252;11.638;2023-04-25T01:52:38;4.78;;;2.60;;
77091;SDS011;66032;48.252;11.638;2023-04-25T01:55:06;4.25;;;2.50;;
77091;SDS011;66032;48.252;11.638;2023-04-25T01:57:37;4.97;;;2.58;;
77091;SDS011;66032;48.252;11.638;2023-04-25T02:00:05;4.32;;;2.88;;
77091;SDS011;66032;48.252;11.638;2023-04-25T02:02:39;5.70;;;3.10;;
77091;SDS011;66032;48.252;11.638;2023-04-25T02:05:20;5.10;;;2.63;;
77091;SDS011;66032;48.252;11.638;2023-04-25T02:07:48;7.70;;;2.72;;
77091;SDS011;66032;48.252;11.638;2023-04-25T02:10:15;4.32;;;2.70;;
77091;SDS011;66032;48.252;11.638;2023-04-25T02:13:02;7.47;;;2.92;;
77091;SDS011;66032;48.252;11.638;2023-04-25T02:15:41;5.30;;;2.80;;
77091;SDS011;66032;48.252;11.638;2023-04-25T02:18:14;4.82;;;3.13;;
77091;SDS011;66032;48.252;11.638;2023-04-25T02:20:43;4.55;;;2.80;;
77091;SDS011;66032;48.252;11.638;2023-04-25T02:23:11;6.78;;;2.85;;
77091;SDS011;66032;48.252;11.638;2023-04-25T02:25:38;4.65;;;2.63;;
77091;SDS011;66032;48.252;11.638;2023-04-25T02:28:05;3.78;;;2.38;;
77091;SDS011;66032;48.252;11.638;2023-04-25T02:30:34;6.70;;;2.80;;
77091;SDS011;66032;48.252;11.638;2023-04-25T02:33:04;5.28;;;2.65;;
77091;SDS011;66032;48.252;11.638;2023-04-25T02:35:31;3.65;;;2.20;;
77091;SDS011;66032;48.252;11.638;2023-04-25T02:37:59;4.45;;;2.75;;
77091;SDS011;66032;48.252;11.638;2023-04-25T02:40:26;5.38;;;2.60;;
77091;SDS011;66032;48.252;11.638;2023-04-25T02:42:54;4.80;;;2.80;;
77091;SDS011;66032;48.252;11.638;2023-04-25T02:45:21;4.28;;;2.70;;
77091;SDS011;66032;48.252;11.638;2023-04-25T02:47:48;4.43;;;2.50;;
77091;SDS011;66032;48.252;11.638;2023-04-25T02:50:18;4.45;;;2.50;;
77091;SDS011;66032;48.252;11.638;2023-04-25T02:52:45;5.78;;;2.60;;
77091;SDS011;66032;48.252;11.638;2023-04-25T02:55:17;4.68;;;2.60;;
77091;SDS011;66032;48.252;11.638;2023-04-25T02:57:45;4.07;;;2.55;;
77091;SDS011;66032;48.252;11.638;2023-04-25T03:00:20;4.70;;;2.70;;
77091;SDS011;66032;48.252;11.638;2023-04-25T03:02:49;3.78;;;2.40;;
77091;SDS011;66032;48.252;11.638;2023-04-25T03:05:18;4.60;;;2.80;;
77091;SDS011;66032;48.252;11.638;2023-04-25T03:07:46;5.60;;;2.45;;
77091;SDS011;66032;48.252;11.638;2023-04-25T03:10:15;3.47;;;2.30;;
77091;SDS011;66032;48.252;11.638;2023-04-25T03:12:42;4.00;;;2.42;;
77091;SDS011;66032;48.252;11.638;2023-04-25T03:15:10;4.78;;;2.80;;
77091;SDS011;66032;48.252;11.638;2023-04-25T03:17:37;4.03;;;2.30;;
77091;SDS011;66032;48.252;11.638;2023-04-25T03:20:04;4.53;;;2.38;;
77091;SDS011;66032;48.252;11.638;2023-04-25T03:22:36;3.80;;;2.15;;
77091;SDS011;66032;48.252;11.638;2023-04-25T03:25:03;5.25;;;2.42;;
77091;SDS011;66032;48.252;11.638;2023-04-25T03:27:31;4.82;;;2.70;;
77091;SDS011;66032;48.252;11.638;2023-04-25T03:29:59;5.20;;;2.40;;
77091;SDS011;66032;48.252;11.638;2023-04-25T03:32:26;3.97;;;2.45;;
77091;SDS011;66032;48.252;11.638;2023-04-25T03:34:55;3.45;;;2.10;;
77091;SDS011;66032;48.252;11.638;2023-04-25T03:37:24;4.70;;;2.55;;
77091;SDS011;66032;48.252;11.638;2023-04-25T03:39:52;4.82;;;2.63;;
77091;SDS011;66032;48.252;11.638;2023-04-25T03:42:22;3.72;;;2.50;;
77091;SDS011;66032;48.252;11.638;2023-04-25T03:44:53;5.70;;;2.78;;
77091;SDS011;66032;48.252;11.638;2023-04-25T03:47:20;4.88;;;2.78;;
77091;SDS011;66032;48.252;11.638;2023-04-25T03:49:49;4.60;;;2.60;;
77091;SDS011;66032;48.252;11.638;2023-04-25T03:52:21;4.80;;;2.55;;
77091;SDS011;66032;48.252;11.638;2023-04-25T03:54:48;5.55;;;2.90;;
77091;SDS011;66032;48.252;11.638;2023-04-25T03:57:18;4.15;;;2.58;;
77091;SDS011;66032;48.252;11.638;2023-04-25T03:59:46;4.63;;;2.47;;
77091;SDS011;66032;48.252;11.638;2023-04-25T04:02:15;4.18;;;2.53;;
77091;SDS011;66032;48.252;11.638;2023-04-25T04:04:42;4.93;;;2.72;;
77091;SDS011;66032;48.252;11.638;2023-04-25T04:07:12;3.28;;;2.13;;
77091;SDS011;66032;48.252;11.638;2023-04-25T04:09:42;5.45;;;2.55;;
77091;SDS011;66032;48.252;11.638;2023-04-25T04:12:16;6.05;;;2.40;;
77091;SDS011;66032;48.252;11.638;2023-04-25T04:14:44;3.63;;;2.20;;
77091;SDS011;66032;48.252;11.638;2023-04-25T04:17:12;4.70;;;2.10;;
77091;SDS011;66032;48.252;11.638;2023-04-25T04:19:39;3.85;;;2.20;;
77091;SDS011;66032;48.252;11.638;2023-04-25T04:22:10;4.32;;;2.38;;
77091;SDS011;66032;48.252;11.638;2023-04-25T04:24:39;4.07;;;2.10;;
77091;SDS011;66032;48.252;11.638;2023-04-25T04:27:09;4.20;;;2.33;;
77091;SDS011;66032;48.252;11.638;2023-04-25T04:29:47;3.70;;;2.15;;
77091;SDS011;66032;48.252;11.638;2023-04-25T04:32:23;4.15;;;2.38;;
77091;SDS011;66032;48.252;11.638;2023-04-25T04:34:52;3.58;;;2.13;;
77091;SDS011;66032;48.252;11.638;2023-04-25T04:37:23;3.08;;;1.90;;
77091;SDS011;66032;48.252;11.638;2023-04-25T04:39:51;3.58;;;2.00;;
77091;SDS011;66032;48.252;11.638;2023-04-25T04:42:37;2.90;;;1.92;;
77091;SDS011;66032;48.252;11.638;2023-04-25T04:45:13;5.05;;;2.17;;
77091;SDS011;66032;48.252;11.638;2023-04-25T04:48:01;4.45;;;2.22;;
77091;SDS011;66032;48.252;11.638;2023-04-25T04:51:01;6.53;;;3.75;;
77091;SDS011;66032;48.252;11.638;2023-04-25T04:53:47;6.68;;;3.90;;
77091;SDS011;66032;48.252;11.638;2023-04-25T04:56:31;11.32;;;6.57;;
77091;SDS011;66032;48.252;11.638;2023-04-25T04:59:25;6.95;;;3.15;;
77091;SDS011;66032;48.252;11.638;2023-04-25T05:02:12;4.25;;;2.33;;
77091;SDS011;66032;48.252;11.638;2023-04-25T05:05:12;5.32;;;2.22;;
77091;SDS011;66032;48.252;11.638;2023-04-25T05:07:57;4.65;;;2.35;;
77091;SDS011;66032;48.252;11.638;2023-04-25T05:10:48;4.85;;;2.58;;
77091;SDS011;66032;48.252;11.638;2023-04-25T05:13:53;5.05;;;2.40;;
77091;SDS011;66032;48.252;11.638;2023-04-25T05:16:56;3.67;;;2.20;;
77091;SDS011;66032;48.252;11.638;2023-04-25T05:19:38;6.60;;;2.20;;
77091;SDS011;66032;48.252;11.638;2023-04-25T05:22:29;5.78;;;2.00;;
77091;SDS011;66032;48.252;11.638;2023-04-25T05:25:16;3.42;;;1.88;;
77091;SDS011;66032;48.252;11.638;2023-04-25T05:27:50;3.88;;;1.90;;
77091;SDS011;66032;48.252;11.638;2023-04-25T05:30:44;3.97;;;2.03;;
77091;SDS011;66032;48.252;11.638;2023-04-25T05:33:18;2.90;;;1.80;;
77091;SDS011;66032;48.252;11.638;2023-04-25T05:35:48;4.03;;;1.83;;
77091;SDS011;66032;48.252;11.638;2023-04-25T05:38:16;3.42;;;2.00;;
77091;SDS011;66032;48.252;11.638;2023-04-25T05:41:02;4.38;;;2.00;;
77091;SDS011;66032;48.252;11.638;2023-04-25T05:43:52;3.90;;;2.08;;
77091;SDS011;66032;48.252;11.638;2023-04-25T05:46:45;4.10;;;2.20;;
77091;SDS011;66032;48.252;11.638;2023-04-25T05:49:50;3.63;;;1.92;;
77091;SDS011;66032;48.252;11.638;2023-04-25T05:52:37;4.22;;;2.20;;
77091;SDS011;66032;48.252;11.638;2023-04-25T05:55:44;4.47;;;2.15;;
77091;SDS011;66032;48.252;11.638;2023-04-25T05:58:19;4.70;;;2.20;;
77091;SDS011;66032;48.252;11.638;2023-04-25T06:00:47;4.80;;;2.28;;
77091;SDS011;66032;48.252;11.638;2023-04-25T06:03:15;3.53;;;2.00;;
77091;SDS011;66032;48.252;11.638;2023-04-25T06:05:46;6.15;;;2.40;;
77091;SDS011;66032;48.252;11.638;2023-04-25T06:08:14;5.43;;;2.50;;
77091;SDS011;66032;48.252;11.638;2023-04-25T06:10:42;5.13;;;2.70;;
77091;SDS011;66032;48.252;11.638;2023-04-25T06:13:09;4.07;;;2.50;;
77091;SDS011;66032;48.252;11.638;2023-04-25T06:15:37;6.68;;;2.70;;
77091;SDS011;66032;48.252;11.638;2023-04-25T06:18:04;6.00;;;3.40;;
77091;SDS011;66032;48.252;11.638;2023-04-25T06:20:33;5.68;;;3.58;;
77091;SDS011;66032;48.252;11.638;2023-04-25T06:23:00;9.65;;;4.38;;
77091;SDS011;66032;48.252;11.638;2023-04-25T06:25:50;6.05;;;3.15;;
77091;SDS011;66032;48.252;11.638;2023-04-25T06:28:18;8.45;;;3.30;;
77091;SDS011;66032;48.252;11.638;2023-04-25T06:30:46;6.25;;;2.60;;
77091;SDS011;66032;48.252;11.638;2023-04-25T06:33:17;4.30;;;2.70;;
77091;SDS011;66032;48.252;11.638;2023-04-25T06:35:44;7.28;;;3.35;;
77091;SDS011;66032;48.252;11.638;2023-04-25T06:38:15;6.32;;;2.88;;
77091;SDS011;66032;48.252;11.638;2023-04-25T06:40:46;4.95;;;2.70;;
77091;SDS011;66032;48.252;11.638;2023-04-25T06:43:15;5.22;;;2.60;;
77091;SDS011;66032;48.252;11.638;2023-04-25T06:46:02;4.38;;;2.30;;
77091;SDS011;66032;48.252;11.638;2023-04-25T06:48:32;4.18;;;2.40;;
77091;SDS011;66032;48.252;11.638;2023-04-25T06:51:00;4.10;;;2.35;;
77091;SDS011;66032;48.252;11.638;2023-04-25T06:53:27;4.35;;;2.25;;
77091;SDS011;66032;48.252;11.638;2023-04-25T06:55:58;6.00;;;2.40;;
77091;SDS011;66032;48.252;11.638;2023-04-25T06:58:39;4.75;;;2.60;;
77091;SDS011;66032;48.252;11.638;2023-04-25T07:01:23;4.05;;;2.00;;
77091;SDS011;66032;48.252;11.638;2023-04-25T07:03:51;4.50;;;2.80;;
77091;SDS011;66032;48.252;11.638;2023-04-25T07:06:19;5.10;;;2.70;;
77091;SDS011;66032;48.252;11.638;2023-04-25T07:08:47;5.82;;;2.70;;
77091;SDS011;66032;48.252;11.638;2023-04-25T07:11:16;4.13;;;2.10;;
77091;SDS011;66032;48.252;11.638;2023-04-25T07:13:43;3.85;;;2.20;;
77091;SDS011;66032;48.252;11.638;2023-04-25T07:16:11;3.40;;;2.05;;
77091;SDS011;66032;48.252;11.638;2023-04-25T07:18:39;5.15;;;2.20;;
77091;SDS011;66032;48.252;11.638;2023-04-25T07:21:08;4.50;;;2.28;;
77091;SDS011;66032;48.252;11.638;2023-04-25T07:23:36;7.97;;;2.63;;
77091;SDS011;66032;48.252;11.638;2023-04-25T07:26:09;3.58;;;2.20;;
77091;SDS011;66032;48.252;11.638;2023-04-25T07:28:45;4.28;;;2.47;;
77091;SDS011;66032;48.252;11.638;2023-04-25T07:31:17;3.90;;;2.10;;
77091;SDS011;66032;48.252;11.638;2023-04-25T07:33:45;4.40;;;2.25;;
77091;SDS011;66032;48.252;11.638;2023-04-25T07:36:12;6.47;;;2.40;;
77091;SDS011;66032;48.252;11.638;2023-04-25T07:38:43;5.40;;;2.67;;
77091;SDS011;66032;48.252;11.638;2023-04-25T07:41:11;3.60;;;2.17;;
77091;SDS011;66032;48.252;11.638;2023-04-25T07:43:38;3.92;;;2.17;;
77091;SDS011;66032;48.252;11.638;2023-04-25T07:46:06;4.45;;;2.15;;
77091;SDS011;66032;48.252;11.638;2023-04-25T07:48:34;5.18;;;2.35;;
77091;SDS011;66032;48.252;11.638;2023-04-25T07:51:01;3.80;;;2.08;;
77091;SDS011;66032;48.252;11.638;2023-04-25T07:53:33;4.60;;;2.10;;
77091;SDS011;66032;48.252;11.638;2023-04-25T07:56:06;4.15;;;2.20;;
77091;SDS011;66032;48.252;11.638;2023-04-25T07:58:37;4.20;;;1.90;;
77091;SDS011;66032;48.252;11.638;2023-04-25T08:01:07;3.58;;;1.80;;
77091;SDS011;66032;48.252;11.638;2023-04-25T08:03:34;3.33;;;1.90;;
77091;SDS011;66032;48.252;11.638;2023-04-25T08:06:07;3.67;;;1.90;;
77091;SDS011;66032;48.252;11.638;2023-04-25T08:08:45;3.28;;;1.83;;
77091;SDS011;66032;48.252;11.638;2023-04-25T08:11:16;2.92;;;1.70;;
77091;SDS011;66032;48.252;11.638;2023-04-25T08:13:44;3.67;;;2.17;;
77091;SDS011;66032;48.252;11.638;2023-04-25T08:16:11;3.50;;;2.00;;
77091;SDS011;66032;48.252;11.638;2023-04-25T08:18:39;5.07;;;2.20;;
77091;SDS011;66032;48.252;11.638;2023-04-25T08:21:08;3.67;;;1.80;;
77091;SDS011;66032;48.252;11.638;2023-04-25T08:23:38;2.95;;;1.77;;
77091;SDS011;66032;48.252;11.638;2023-04-25T08:26:13;5.28;;;1.70;;
77091;SDS011;66032;48.252;11.638;2023-04-25T08:28:42;4.35;;;2.00;;
77091;SDS011;66032;48.252;11.638;2023-04-25T08:31:09;3.97;;;1.95;;
77091;SDS011;66032;48.252;11.638;2023-04-25T08:33:47;3.90;;;1.80;;
77091;SDS011;66032;48.252;11.638;2023-04-25T08:36:21;3.28;;;1.75;;
77091;SDS011;66032;48.252;11.638;2023-04-25T08:39:15;4.40;;;2.05;;
77091;SDS011;66032;48.252;11.638;2023-04-25T08:42:04;5.30;;;2.90;;
77091;SDS011;66032;48.252;11.638;2023-04-25T08:44:37;3.70;;;2.42;;
77091;SDS011;66032;48.252;11.638;2023-04-25T08:47:05;3.75;;;2.00;;
77091;SDS011;66032;48.252;11.638;2023-04-25T08:49:42;5.18;;;3.03;;
77091;SDS011;66032;48.252;11.638;2023-04-25T08:52:13;6.40;;;3.13;;
77091;SDS011;66032;48.252;11.638;2023-04-25T08:54:42;3.70;;;2.00;;
77091;SDS011;66032;48.252;11.638;2023-04-25T08:57:17;4.10;;;1.70;;
77091;SDS011;66032;48.252;11.638;2023-04-25T08:59:47;3.90;;;2.00;;
77091;SDS011;66032;48.252;11.638;2023-04-25T09:02:16;2.88;;;1.58;;
77091;SDS011;66032;48.252;11.638;2023-04-25T09:04:48;4.68;;;2.38;;
77091;SDS011;66032;48.252;11.638;2023-04-25T09:07:16;3.13;;;1.60;;
77091;SDS011;66032;48.252;11.638;2023-04-25T09:09:49;4.20;;;1.45;;
77091;SDS011;66032;48.252;11.638;2023-04-25T09:12:19;4.18;;;1.60;;
77091;SDS011;66032;48.252;11.638;2023-04-25T09:17:57;5.10;;;2.40;;
77091;SDS011;66032;48.252;11.638;2023-04-25T09:20:34;3.95;;;2.65;;
77091;SDS011;66032;48.252;11.638;2023-04-25T09:23:14;5.10;;;3.25;;
77091;SDS011;66032;48.252;11.638;2023-04-25T09:25:42;3.13;;;1.80;;
77091;SDS011;66032;48.252;11.638;2023-04-25T09:28:10;4.90;;;2.90;;
77091;SDS011;66032;48.252;11.638;2023-04-25T09:30:38;3.35;;;1.90;;
77091;SDS011;66032;48.252;11.638;2023-04-25T09:33:19;4.40;;;2.30;;
77091;SDS011;66032;48.252;11.638;2023-04-25T09:35:49;3.95;;;2.30;;
77091;SDS011;66032;48.252;11.638;2023-04-25T09:38:43;3.60;;;1.70;;
77091;SDS011;66032;48.252;11.638;2023-04-25T09:41:23;3.20;;;1.73;;
77091;SDS011;66032;48.252;11.638;2023-04-25T09:43:56;2.20;;;1.50;;
77091;SDS011;66032;48.252;11.638;2023-04-25T09:46:33;3.10;;;1.70;;
77091;SDS011;66032;48.252;11.638;2023-04-25T09:49:07;2.55;;;1.60;;
77091;SDS011;66032;48.252;11.638;2023-04-25T09:51:53;2.83;;;1.63;;
77091;SDS011;66032;48.252;11.638;2023-04-25T09:54:28;3.40;;;1.60;;
77091;SDS011;66032;48.252;11.638;2023-04-25T09:57:08;3.42;;;1.60;;
77091;SDS011;66032;48.252;11.638;2023-04-25T09:59:39;3.50;;;1.70;;
77091;SDS011;66032;48.252;11.638;2023-04-25T10:02:10;3.40;;;2.10;;
77091;SDS011;66032;48.252;11.638;2023-04-25T10:04:39;3.20;;;1.45;;
77091;SDS011;66032;48.252;11.638;2023-04-25T10:07:29;2.40;;;1.67;;
77091;SDS011;66032;48.252;11.638;2023-04-25T10:10:01;3.42;;;1.90;;
77091;SDS011;66032;48.252;11.638;2023-04-25T10:12:31;3.85;;;1.70;;
77091;SDS011;66032;48.252;11.638;2023-04-25T10:15:00;4.25;;;1.60;;
77091;SDS011;66032;48.252;11.638;2023-04-25T10:17:29;2.50;;;1.50;;
77091;SDS011;66032;48.252;11.638;2023-04-25T10:19:58;2.30;;;1.40;;
77091;SDS011;66032;48.252;11.638;2023-04-25T10:22:36;3.33;;;1.60;;
77091;SDS011;66032;48.252;11.638;2023-04-25T10:25:06;3.53;;;1.70;;
77091;SDS011;66032;48.252;11.638;2023-04-25T10:27:35;3.70;;;1.65;;
77091;SDS011;66032;48.252;11.638;2023-04-25T10:30:05;2.75;;;1.55;;
77091;SDS011;66032;48.252;11.638;2023-04-25T10:35:11;3.05;;;1.75;;
77091;SDS011;66032;48.252;11.638;2023-04-25T10:40:40;4.00;;;1.60;;
77091;SDS011;66032;48.252;11.638;2023-04-25T10:46:03;7.63;;;5.13;;
77091;SDS011;66032;48.252;11.638;2023-04-25T10:49:02;5.70;;;3.53;;
77091;SDS011;66032;48.252;11.638;2023-04-25T10:51:33;4.75;;;2.22;;
77091;SDS011;66032;48.252;11.638;2023-04-25T10:54:05;4.07;;;1.70;;
77091;SDS011;66032;48.252;11.638;2023-04-25T10:56:37;4.60;;;2.65;;
77091;SDS011;66032;48.252;11.638;2023-04-25T11:01:44;2.78;;;1.60;;
77091;SDS011;66032;48.252;11.638;2023-04-25T11:04:22;2.83;;;1.83;;
77091;SDS011;66032;48.252;11.638;2023-04-25T11:09:40;2.72;;;1.25;;
77091;SDS011;66032;48.252;11.638;2023-04-25T11:12:08;2.10;;;1.30;;
77091;SDS011;66032;48.252;11.638;2023-04-25T11:14:38;3.08;;;1.77;;
77091;SDS011;66032;48.252;11.638;2023-04-25T11:17:26;3.60;;;1.70;;
77091;SDS011;66032;48.252;11.638;2023-04-25T11:19:54;3.10;;;1.90;;
77091;SDS011;66032;48.252;11.638;2023-04-25T11:22:23;3.92;;;1.63;;
77091;SDS011;66032;48.252;11.638;2023-04-25T11:24:50;2.67;;;1.45;;
77091;SDS011;66032;48.252;11.638;2023-04-25T11:27:18;2.40;;;1.60;;
77091;SDS011;66032;48.252;11.638;2023-04-25T11:29:45;2.67;;;1.35;;
77091;SDS011;66032;48.252;11.638;2023-04-25T11:32:15;2.38;;;1.40;;
77091;SDS011;66032;48.252;11.638;2023-04-25T11:34:47;3.20;;;1.52;;
77091;SDS011;66032;48.252;11.638;2023-04-25T11:37:14;3.25;;;1.20;;
77091;SDS011;66032;48.252;11.638;2023-04-25T11:39:42;2.55;;;1.35;;
77091;SDS011;66032;48.252;11.638;2023-04-25T11:42:12;2.25;;;1.40;;
77091;SDS011;66032;48.252;11.638;2023-04-25T11:44:39;2.22;;;1.20;;
77091;SDS011;66032;48.252;11.638;2023-04-25T11:47:07;2.30;;;1.40;;
77091;SDS011;66032;48.252;11.638;2023-04-25T11:49:35;2.30;;;1.60;;
77091;SDS011;66032;48.252;11.638;2023-04-25T11:52:02;3.35;;;1.50;;
77091;SDS011;66032;48.252;11.638;2023-04-25T11:54:30;2.38;;;1.52;;
77091;SDS011;66032;48.252;11.638;2023-04-25T11:56:57;3.60;;;1.70;;
77091;SDS011;66032;48.252;11.638;2023-04-25T11:59:24;3.17;;;1.80;;
77091;SDS011;66032;48.252;11.638;2023-04-25T12:01:53;4.50;;;1.80;;
77091;SDS011;66032;48.252;11.638;2023-04-25T12:04:21;2.90;;;1.80;;
77091;SDS011;66032;48.252;11.638;2023-04-25T12:06:51;3.58;;;1.80;;
77091;SDS011;66032;48.252;11.638;2023-04-25T12:09:21;2.47;;;1.67;;
77091;SDS011;66032;48.252;11.638;2023-04-25T12:11:55;2.50;;;1.58;;
77091;SDS011;66032;48.252;11.638;2023-04-25T12:14:28;3.10;;;1.50;;
77091;SDS011;66032;48.252;11.638;2023-04-25T12:16:59;2.58;;;1.48;;
77091;SDS011;66032;48.252;11.638;2023-04-25T12:19:35;2.72;;;1.60;;
77091;SDS011;66032;48.252;11.638;2023-04-25T12:22:20;3.67;;;1.88;;
77091;SDS011;66032;48.252;11.638;2023-04-25T12:24:49;3.08;;;1.65;;
77091;SDS011;66032;48.252;11.638;2023-04-25T12:27:20;4.10;;;2.47;;
77091;SDS011;66032;48.252;11.638;2023-04-25T12:29:54;5.65;;;3.20;;
77091;SDS011;66032;48.252;11.638;2023-04-25T12:32:23;5.88;;;3.30;;
77091;SDS011;66032;48.252;11.638;2023-04-25T12:34:51;3.75;;;1.73;;
77091;SDS011;66032;48.252;11.638;2023-04-25T12:37:18;3.50;;;1.70;;
77091;SDS011;66032;48.252;11.638;2023-04-25T12:39:46;3.45;;;1.85;;
77091;SDS011;66032;48.252;11.638;2023-04-25T12:42:13;3.03;;;1.70;;
77091;SDS011;66032;48.252;11.638;2023-04-25T12:44:41;2.97;;;1.70;;
77091;SDS011;66032;48.252;11.638;2023-04-25T12:47:08;2.47;;;1.50;;
77091;SDS011;66032;48.252;11.638;2023-04-25T12:49:36;3.53;;;1.60;;
77091;SDS011;66032;48.252;11.638;2023-04-25T12:52:03;3.47;;;1.65;;
77091;SDS011;66032;48.252;11.638;2023-04-25T12:54:31;3.15;;;2.00;;
77091;SDS011;66032;48.252;11.638;2023-04-25T12:56:58;2.53;;;1.58;;
77091;SDS011;66032;48.252;11.638;2023-04-25T12:59:26;2.53;;;1.67;;
77091;SDS011;66032;48.252;11.638;2023-04-25T13:01:53;2.53;;;1.60;;
77091;SDS011;66032;48.252;11.638;2023-04-25T13:04:20;3.35;;;1.80;;
77091;SDS011;66032;48.252;11.638;2023-04-25T13:06:48;3.15;;;1.88;;
77091;SDS011;66032;48.252;11.638;2023-04-25T13:09:15;3.58;;;1.50;;
77091;SDS011;66032;48.252;11.638;2023-04-25T13:11:42;2.38;;;1.30;;
77091;SDS011;66032;48.252;11.638;2023-04-25T13:14:10;2.53;;;1.40;;
77091;SDS011;66032;48.252;11.638;2023-04-25T13:16:37;2.08;;;1.63;;
77091;SDS011;66032;48.252;11.638;2023-04-25T13:19:05;2.13;;;1.48;;
77091;SDS011;66032;48.252;11.638;2023-04-25T13:21:34;2.58;;;1.23;;
77091;SDS011;66032;48.252;11.638;2023-04-25T13:24:02;1.70;;;1.10;;
77091;SDS011;66032;48.252;11.638;2023-04-25T13:26:29;1.88;;;1.30;;
77091;SDS011;66032;48.252;11.638;2023-04-25T13:28:56;1.80;;;1.10;;
77091;SDS011;66032;48.252;11.638;2023-04-25T13:31:24;3.10;;;1.10;;
77091;SDS011;66032;48.252;11.638;2023-04-25T13:33:51;1.30;;;1.00;;
77091;SDS011;66032;48.252;11.638;2023-04-25T13:36:19;3.30;;;1.50;;
77091;SDS011;66032;48.252;11.638;2023-04-25T13:38:47;1.58;;;1.20;;
77091;SDS011;66032;48.252;11.638;2023-04-25T13:41:16;2.40;;;1.40;;
77091;SDS011;66032;48.252;11.638;2023-04-25T13:43:46;2.97;;;1.40;;
77091;SDS011;66032;48.252;11.638;2023-04-25T13:46:15;2.25;;;1.50;;
77091;SDS011;66032;48.252;11.638;2023-04-25T13:49:03;4.50;;;2.30;;
77091;SDS011;66032;48.252;11.638;2023-04-25T13:51:38;2.92;;;1.83;;
77091;SDS011;66032;48.252;11.638;2023-04-25T13:54:05;2.70;;;1.70;;
77091;SDS011;66032;48.252;11.638;2023-04-25T13:56:33;3.13;;;1.45;;
77091;SDS011;66032;48.252;11.638;2023-04-25T13:59:00;1.98;;;1.25;;
77091;SDS011;66032;48.252;11.638;2023-04-25T14:01:27;2.42;;;1.48;;
77091;SDS011;66032;48.252;11.638;2023-04-25T14:03:57;2.65;;;1.35;;
77091;SDS011;66032;48.252;11.638;2023-04-25T14:06:25;1.90;;;1.17;;
77091;SDS011;66032;48.252;11.638;2023-04-25T14:08:53;2.45;;;1.60;;
77091;SDS011;66032;48.252;11.638;2023-04-25T14:11:20;2.75;;;1.33;;
77091;SDS011;66032;48.252;11.638;2023-04-25T14:13:47;2.20;;;1.50;;
77091;SDS011;66032;48.252;11.638;2023-04-25T14:16:16;3.78;;;1.40;;
77091;SDS011;66032;48.252;11.638;2023-04-25T14:18:44;1.77;;;1.20;;
77091;SDS011;66032;48.252;11.638;2023-04-25T14:21:11;2.63;;;1.60;;
77091;SDS011;66032;48.252;11.638;2023-04-25T14:23:38;2.95;;;1.48;;
77091;SDS011;66032;48.252;11.638;2023-04-25T14:26:06;2.75;;;1.70;;
77091;SDS011;66032;48.252;11.638;2023-04-25T14:28:33;2.47;;;1.42;;
77091;SDS011;66032;48.252;11.638;2023-04-25T14:31:00;2.28;;;1.45;;
77091;SDS011;66032;48.252;11.638;2023-04-25T14:33:28;2.50;;;1.50;;
77091;SDS011;66032;48.252;11.638;2023-04-25T14:35:55;2.58;;;1.60;;
77091;SDS011;66032;48.252;11.638;2023-04-25T14:38:22;3.33;;;1.63;;
77091;SDS011;66032;48.252;11.638;2023-04-25T14:40:52;3.17;;;1.70;;
77091;SDS011;66032;48.252;11.638;2023-04-25T14:43:20;2.63;;;1.60;;
77091;SDS011;66032;48.252;11.638;2023-04-25T14:45:48;2.80;;;1.60;;
77091;SDS011;66032;48.252;11.638;2023-04-25T14:48:15;1.85;;;1.25;;
77091;SDS011;66032;48.252;11.638;2023-04-25T14:50:45;2.03;;;1.50;;
77091;SDS011;66032;48.252;11.638;2023-04-25T14:53:13;1.70;;;1.30;;
77091;SDS011;66032;48.252;11.638;2023-04-25T14:55:41;3.70;;;1.70;;
77091;SDS011;66032;48.252;11.638;2023-04-25T14:58:08;2.45;;;1.35;;
77091;SDS011;66032;48.252;11.638;2023-04-25T15:00:36;2.45;;;1.63;;
77091;SDS011;66032;48.252;11.638;2023-04-25T15:03:04;2.53;;;1.58;;
77091;SDS011;66032;48.252;11.638;2023-04-25T15:05:33;2.58;;;1.40;;
77091;SDS011;66032;48.252;11.638;2023-04-25T15:08:01;2.53;;;1.63;;
77091;SDS011;66032;48.252;11.638;2023-04-25T15:10:28;2.80;;;1.73;;
77091;SDS011;66032;48.252;11.638;2023-04-25T15:12:56;3.83;;;1.80;;
77091;SDS011;66032;48.252;11.638;2023-04-25T15:15:24;2.83;;;1.58;;